createdAt,value
2023-01-05T00:01:10.957Z,10.20
2023-01-05T00:03:38.599Z,10.20
2023-01-05T00:06:08.149Z,10.30
2023-01-05T00:08:37.737Z,10.40
2023-01-05T00:11:25.066Z,10.40
2023-01-05T00:14:10.558Z,10.40
2023-01-05T00:16:55.981Z,10.50
2023-01-05T00:19:41.667Z,10.50
2023-01-05T00:22:34.792Z,10.50
2023-01-05T00:25:12.227Z,10.50
2023-01-05T00:27:41.456Z,10.50
2023-01-05T00:30:10.028Z,10.50
2023-01-05T00:32:36.716Z,10.40
2023-01-05T00:35:04.091Z,10.50
2023-01-05T00:37:33.254Z,10.40
2023-01-05T00:40:00.130Z,10.50
2023-01-05T00:42:27.225Z,10.50
2023-01-05T00:44:54.046Z,10.50
2023-01-05T00:47:20.720Z,10.40
2023-01-05T00:49:47.719Z,10.50
2023-01-05T00:52:14.554Z,10.60
2023-01-05T00:54:41.355Z,10.70
2023-01-05T00:57:11.369Z,10.70
2023-01-05T00:59:38.111Z,10.70
2023-01-05T01:02:05.026Z,10.60
2023-01-05T01:04:33.521Z,10.70
2023-01-05T01:07:00.925Z,10.70
2023-01-05T01:09:27.718Z,10.70
2023-01-05T01:11:54.507Z,10.60
2023-01-05T01:14:21.669Z,10.60
2023-01-05T01:16:48.532Z,10.50
2023-01-05T01:19:20.726Z,10.50
2023-01-05T01:21:47.730Z,10.40
2023-01-05T01:24:24.074Z,10.40
2023-01-05T01:26:51.391Z,10.40
2023-01-05T01:29:18.172Z,10.40
2023-01-05T01:31:49.608Z,10.50
2023-01-05T01:34:16.676Z,10.40
2023-01-05T01:36:44.616Z,10.40
2023-01-05T01:39:12.305Z,10.40
2023-01-05T01:41:39.360Z,10.40
2023-01-05T01:44:43.663Z,10.30
2023-01-05T01:47:17.020Z,10.30
2023-01-05T01:49:44.377Z,10.30
2023-01-05T01:52:11.259Z,10.30
2023-01-05T01:54:38.594Z,10.30
2023-01-05T01:57:05.860Z,10.30
2023-01-05T01:59:32.820Z,10.20
2023-01-05T02:02:01.468Z,10.20
2023-01-05T02:04:31.704Z,10.20
2023-01-05T02:07:00.140Z,10.10
2023-01-05T02:09:27.125Z,10.10
2023-01-05T02:12:23.948Z,10.10
2023-01-05T02:15:10.943Z,10.00
2023-01-05T02:18:02.848Z,10.00
2023-01-05T02:20:51.225Z,10.00
2023-01-05T02:23:52.175Z,10.00
2023-01-05T02:26:49.522Z,10.00
2023-01-05T02:29:52.372Z,10.00
2023-01-05T02:32:39.840Z,10.00
2023-01-05T02:35:12.516Z,10.00
2023-01-05T02:37:45.447Z,10.00
2023-01-05T02:40:27.269Z,10.00
2023-01-05T02:42:55.951Z,10.00
2023-01-05T02:45:24.487Z,9.90
2023-01-05T02:47:51.467Z,9.90
2023-01-05T02:50:31.590Z,9.90
2023-01-05T02:53:21.247Z,9.90
2023-01-05T02:56:13.369Z,9.90
2023-01-05T02:58:45.600Z,9.80
2023-01-05T03:01:18.649Z,9.70
2023-01-05T03:03:49.575Z,9.70
2023-01-05T03:06:38.734Z,9.70
2023-01-05T03:09:06.550Z,9.70
2023-01-05T03:12:02.854Z,9.70
2023-01-05T03:14:44.585Z,9.70
2023-01-05T03:17:14.995Z,9.80
2023-01-05T03:19:44.472Z,9.80
2023-01-05T03:22:46.926Z,9.60
2023-01-05T03:25:34.879Z,9.60
2023-01-05T03:28:22.785Z,9.60
2023-01-05T03:31:20.619Z,9.60
2023-01-05T03:34:30.292Z,9.70
2023-01-05T03:37:02.111Z,9.70
2023-01-05T03:39:31.179Z,9.80
2023-01-05T03:41:58.832Z,9.80
2023-01-05T03:44:25.683Z,9.80
2023-01-05T03:46:52.445Z,9.80
2023-01-05T03:49:19.186Z,9.80
2023-01-05T03:51:45.877Z,9.80
2023-01-05T03:54:12.533Z,9.80
2023-01-05T03:56:39.321Z,9.80
2023-01-05T03:59:06.127Z,9.90
2023-01-05T04:01:32.913Z,9.80
2023-01-05T04:03:59.807Z,9.70
2023-01-05T04:06:26.575Z,9.70
2023-01-05T04:08:53.320Z,9.70
2023-01-05T04:11:22.476Z,9.70
2023-01-05T04:13:49.545Z,9.70
2023-01-05T04:16:16.975Z,9.70
2023-01-05T04:18:43.970Z,9.70
2023-01-05T04:21:10.784Z,9.60
2023-01-05T04:23:37.588Z,9.50
2023-01-05T04:26:04.662Z,9.40
2023-01-05T04:28:31.542Z,9.20
2023-01-05T04:30:58.413Z,9.10
2023-01-05T04:33:25.781Z,9.00
2023-01-05T04:35:52.649Z,9.00
2023-01-05T04:38:19.530Z,8.90
2023-01-05T04:40:50.822Z,9.00
2023-01-05T04:43:18.755Z,8.90
2023-01-05T04:45:49.375Z,8.90
2023-01-05T04:48:16.712Z,8.70
2023-01-05T04:50:43.709Z,8.70
2023-01-05T04:53:11.195Z,8.70
2023-01-05T04:55:38.005Z,8.50
2023-01-05T04:58:11.536Z,8.40
2023-01-05T05:00:39.047Z,8.30
2023-01-05T05:03:06.165Z,8.40
2023-01-05T05:05:33.107Z,8.40
2023-01-05T05:08:00.009Z,8.50
2023-01-05T05:10:26.800Z,8.50
2023-01-05T05:12:53.553Z,8.30
2023-01-05T05:15:20.374Z,8.20
2023-01-05T05:17:47.088Z,8.10
2023-01-05T05:20:14.040Z,8.00
2023-01-05T05:22:40.796Z,8.10
2023-01-05T05:25:08.130Z,8.10
2023-01-05T05:27:35.033Z,8.40
2023-01-05T05:30:01.825Z,8.40
2023-01-05T05:32:29.074Z,8.50
2023-01-05T05:34:55.832Z,8.60
2023-01-05T05:37:22.583Z,8.70
2023-01-05T05:39:49.291Z,8.70
2023-01-05T05:42:15.973Z,8.70
2023-01-05T05:44:42.915Z,8.60
2023-01-05T05:47:09.658Z,8.60
2023-01-05T05:49:36.329Z,8.70
2023-01-05T05:52:03.393Z,8.60
2023-01-05T05:54:30.054Z,8.70
2023-01-05T05:56:56.786Z,8.70
2023-01-05T05:59:23.562Z,8.80
2023-01-05T06:01:52.349Z,8.70
2023-01-05T06:04:19.244Z,8.70
2023-01-05T06:06:45.997Z,8.70
2023-01-05T06:09:12.882Z,8.70
2023-01-05T06:11:39.814Z,8.70
2023-01-05T06:14:07.649Z,8.60
2023-01-05T06:16:34.669Z,8.60
2023-01-05T06:19:01.496Z,8.50
2023-01-05T06:21:28.281Z,8.40
2023-01-05T06:23:55.020Z,8.30
2023-01-05T06:26:21.754Z,8.30
2023-01-05T06:28:48.503Z,8.30
2023-01-05T06:31:15.327Z,8.50
2023-01-05T06:33:42.041Z,8.60
2023-01-05T06:36:08.838Z,8.60
2023-01-05T06:38:35.569Z,8.70
2023-01-05T06:41:02.288Z,8.70
2023-01-05T06:43:29.091Z,8.70
2023-01-05T06:45:55.897Z,8.70
2023-01-05T06:48:22.789Z,8.80
2023-01-05T06:50:49.545Z,8.90
2023-01-05T06:53:16.305Z,8.90
2023-01-05T06:55:43.959Z,9.00
2023-01-05T06:58:10.757Z,9.00
2023-01-05T07:00:37.605Z,8.90
2023-01-05T07:03:04.402Z,8.90
2023-01-05T07:05:31.625Z,8.90
2023-01-05T07:07:58.349Z,8.90
2023-01-05T07:10:25.042Z,9.00
2023-01-05T07:12:51.749Z,9.00
2023-01-05T07:15:18.514Z,9.00
2023-01-05T07:17:45.168Z,9.00
2023-01-05T07:20:11.901Z,9.10
2023-01-05T07:22:38.596Z,9.10
2023-01-05T07:25:05.757Z,9.10
2023-01-05T07:27:32.577Z,9.10
2023-01-05T07:29:59.313Z,9.00
2023-01-05T07:32:26.078Z,9.00
2023-01-05T07:34:55.774Z,9.00
2023-01-05T07:37:25.087Z,9.10
2023-01-05T07:39:52.416Z,9.20
2023-01-05T07:42:19.215Z,9.20
2023-01-05T07:44:45.952Z,9.10
2023-01-05T07:47:12.694Z,9.20
2023-01-05T07:49:39.423Z,9.30
2023-01-05T07:52:06.189Z,9.30
2023-01-05T07:54:32.915Z,9.30
2023-01-05T07:57:00.022Z,9.30
2023-01-05T07:59:26.765Z,9.30
2023-01-05T08:01:53.616Z,9.30
2023-01-05T08:04:20.493Z,9.20
2023-01-05T08:06:47.285Z,9.40
2023-01-05T08:09:32.588Z,9.40
2023-01-05T08:11:59.344Z,9.50
2023-01-05T08:14:26.050Z,9.70
2023-01-05T08:16:52.856Z,9.70
2023-01-05T08:19:19.836Z,9.70
2023-01-05T08:21:46.562Z,9.80
2023-01-05T08:24:13.561Z,9.70
2023-01-05T08:26:40.431Z,9.80
2023-01-05T08:29:07.204Z,9.90
2023-01-05T08:31:37.619Z,10.00
2023-01-05T08:34:05.306Z,9.90
2023-01-05T08:36:33.287Z,10.10
2023-01-05T08:39:01.790Z,10.20
2023-01-05T08:41:32.522Z,10.40
2023-01-05T08:44:01.628Z,10.40
2023-01-05T08:46:32.883Z,10.40
2023-01-05T08:49:01.884Z,10.40
2023-01-05T08:51:29.535Z,10.60
2023-01-05T08:53:56.702Z,10.60
2023-01-05T08:56:26.258Z,10.60
2023-01-05T08:58:55.516Z,10.60
2023-01-05T09:01:22.431Z,10.60
2023-01-05T09:03:49.330Z,10.60
2023-01-05T09:06:16.520Z,10.60
2023-01-05T09:08:45.241Z,10.50
2023-01-05T09:11:13.387Z,10.60
2023-01-05T09:13:41.548Z,10.70
2023-01-05T09:16:11.365Z,10.80
2023-01-05T09:18:39.421Z,10.80
2023-01-05T09:21:06.827Z,10.90
2023-01-05T09:23:34.656Z,11.00
2023-01-05T09:26:07.053Z,10.90
2023-01-05T09:28:36.326Z,11.10
2023-01-05T09:31:14.681Z,11.00
2023-01-05T09:33:42.525Z,10.90
2023-01-05T09:36:11.082Z,10.90
2023-01-05T09:38:42.069Z,10.90
2023-01-05T09:41:23.067Z,11.00
2023-01-05T09:43:56.152Z,10.90
2023-01-05T09:46:32.882Z,10.90
2023-01-05T09:49:02.558Z,11.00
2023-01-05T09:51:30.443Z,10.90
2023-01-05T09:53:58.791Z,10.90
2023-01-05T09:59:26.411Z,11.10
2023-01-05T10:01:56.275Z,11.20
2023-01-05T10:04:30.332Z,11.10
2023-01-05T10:07:07.187Z,11.40
2023-01-05T10:09:39.124Z,11.70
2023-01-05T10:12:27.467Z,11.90
2023-01-05T10:15:15.822Z,12.00
2023-01-05T10:17:43.905Z,11.90
2023-01-05T10:20:30.355Z,11.90
2023-01-05T10:23:28.921Z,11.90
2023-01-05T10:26:05.054Z,11.80
2023-01-05T10:28:43.605Z,11.80
2023-01-05T10:31:27.109Z,11.80
2023-01-05T10:34:05.967Z,11.90
2023-01-05T10:37:08.033Z,11.90
2023-01-05T10:39:52.463Z,11.90
2023-01-05T10:42:49.086Z,11.80
2023-01-05T10:45:18.038Z,11.80
2023-01-05T10:47:46.196Z,12.00
2023-01-05T10:50:31.856Z,12.10
2023-01-05T10:52:59.447Z,12.10
2023-01-05T10:55:28.610Z,12.20
2023-01-05T10:57:55.527Z,12.20
2023-01-05T11:00:39.873Z,12.10
2023-01-05T11:03:13.301Z,12.20
2023-01-05T11:05:46.546Z,12.40
2023-01-05T11:08:27.019Z,12.50
2023-01-05T11:10:57.819Z,12.70
2023-01-05T11:13:49.633Z,12.70
2023-01-05T11:16:23.616Z,12.50
2023-01-05T11:18:58.719Z,12.50
2023-01-05T11:21:46.079Z,12.80
2023-01-05T11:24:25.131Z,13.10
2023-01-05T11:27:16.588Z,13.60
2023-01-05T11:29:43.281Z,13.80
2023-01-05T11:32:13.828Z,14.10
2023-01-05T11:34:48.298Z,14.30
2023-01-05T11:37:31.551Z,14.50
2023-01-05T11:40:03.204Z,14.80
2023-01-05T11:42:35.747Z,15.00
2023-01-05T11:45:25.081Z,15.30
2023-01-05T11:48:06.930Z,15.60
2023-01-05T11:50:49.108Z,16.60
2023-01-05T11:53:34.349Z,20.60
2023-01-05T11:56:15.147Z,25.60
2023-01-05T11:58:47.161Z,28.30
2023-01-05T12:01:28.706Z,30.20
2023-01-05T12:04:08.718Z,31.90
2023-01-05T12:07:12.908Z,33.30
2023-01-05T12:09:45.257Z,33.20
2023-01-05T12:12:22.550Z,34.30
2023-01-05T12:14:55.010Z,34.30
2023-01-05T12:17:45.210Z,34.30
2023-01-05T12:20:24.945Z,34.40
2023-01-05T12:23:04.276Z,35.00
2023-01-05T12:25:34.036Z,35.10
2023-01-05T12:28:39.487Z,34.90
2023-01-05T12:34:54.997Z,35.40
2023-01-05T12:37:21.718Z,35.70
2023-01-05T12:39:58.019Z,36.10
2023-01-05T12:42:28.055Z,34.60
2023-01-05T12:45:26.681Z,33.90
2023-01-05T12:48:17.579Z,33.90
2023-01-05T12:50:52.447Z,35.00
2023-01-05T12:53:37.013Z,36.00
2023-01-05T12:56:20.071Z,36.50
2023-01-05T12:58:57.077Z,37.10
2023-01-05T13:01:29.009Z,37.00
2023-01-05T13:04:34.281Z,36.20
2023-01-05T13:07:11.424Z,33.50
2023-01-05T13:09:38.854Z,32.10
2023-01-05T13:12:08.812Z,32.10
2023-01-05T13:14:41.097Z,33.00
2023-01-05T13:17:23.120Z,33.30
2023-01-05T13:20:15.587Z,32.80
2023-01-05T13:22:44.135Z,33.70
2023-01-05T13:25:25.447Z,34.00
2023-01-05T13:27:52.218Z,33.80
2023-01-05T13:30:23.534Z,34.20
2023-01-05T13:33:02.246Z,34.00
2023-01-05T13:36:01.071Z,33.50
2023-01-05T13:38:44.477Z,32.80
2023-01-05T13:41:14.251Z,32.50
2023-01-05T13:43:47.033Z,31.20
2023-01-05T13:46:35.543Z,30.20
2023-01-05T13:49:41.756Z,30.60
2023-01-05T13:52:17.815Z,31.50
2023-01-05T13:55:00.521Z,32.00
2023-01-05T13:57:40.268Z,31.10
2023-01-05T14:00:12.538Z,31.30
2023-01-05T14:02:45.257Z,31.30
2023-01-05T14:05:37.450Z,31.80
2023-01-05T14:08:14.672Z,32.00
2023-01-05T14:10:41.792Z,31.80
2023-01-05T14:13:43.252Z,29.80
2023-01-05T14:16:35.321Z,26.70
2023-01-05T14:19:18.988Z,23.70
2023-01-05T14:21:53.934Z,21.90
2023-01-05T14:24:26.887Z,20.70
2023-01-05T14:27:24.256Z,19.90
2023-01-05T14:29:54.261Z,18.80
2023-01-05T14:32:37.098Z,18.60
2023-01-05T14:35:18.901Z,18.40
2023-01-05T14:38:02.018Z,18.10
2023-01-05T14:40:40.070Z,17.90
2023-01-05T14:43:35.818Z,17.90
2023-01-05T14:46:15.297Z,17.80
2023-01-05T14:48:43.928Z,17.60
2023-01-05T14:51:26.195Z,17.40
2023-01-05T14:54:05.019Z,17.20
2023-01-05T14:56:37.096Z,16.90
2023-01-05T14:59:20.231Z,16.80
2023-01-05T15:01:54.798Z,16.70
2023-01-05T15:04:30.467Z,16.60
2023-01-05T15:07:31.966Z,16.40
2023-01-05T15:10:10.862Z,16.20
2023-01-05T15:12:40.369Z,16.20
2023-01-05T15:15:13.216Z,16.10
2023-01-05T15:17:48.999Z,15.90
2023-01-05T15:20:39.676Z,16.00
2023-01-05T15:23:33.295Z,15.90
2023-01-05T15:26:36.026Z,16.00
2023-01-05T15:29:27.099Z,15.90
2023-01-05T15:32:27.211Z,15.80
2023-01-05T15:35:15.632Z,15.60
2023-01-05T15:37:43.272Z,15.60
2023-01-05T15:40:28.749Z,15.50
2023-01-05T15:42:59.264Z,15.50
2023-01-05T15:45:32.048Z,15.50
2023-01-05T15:48:09.418Z,15.30
2023-01-05T15:50:47.133Z,15.20
2023-01-05T15:53:26.159Z,15.20
2023-01-05T15:55:53.383Z,15.30
2023-01-05T15:58:21.366Z,15.30
2023-01-05T16:01:07.853Z,15.20
2023-01-05T16:03:37.110Z,15.20
2023-01-05T16:06:11.796Z,15.00
2023-01-05T16:08:45.879Z,15.00
2023-01-05T16:11:21.279Z,15.00
2023-01-05T16:14:01.544Z,14.80
2023-01-05T16:16:55.533Z,14.90
2023-01-05T16:19:41.334Z,14.90
2023-01-05T16:22:21.345Z,14.80
2023-01-05T16:25:01.648Z,14.80
2023-01-05T16:27:29.525Z,14.70
2023-01-05T16:30:28.174Z,14.60
2023-01-05T16:33:06.076Z,14.60
2023-01-05T16:35:43.671Z,14.60
2023-01-05T16:38:10.613Z,14.70
2023-01-05T16:40:41.309Z,14.70
2023-01-05T16:43:38.206Z,14.60
2023-01-05T16:46:19.937Z,14.60
2023-01-05T16:48:50.675Z,14.70
2023-01-05T16:51:19.052Z,14.70
2023-01-05T16:54:06.639Z,14.70
2023-01-05T16:56:33.324Z,14.70
2023-01-05T16:59:01.418Z,14.70
2023-01-05T17:01:44.866Z,14.60
2023-01-05T17:04:16.485Z,14.50
2023-01-05T17:06:48.610Z,14.50
2023-01-05T17:09:26.939Z,14.40
2023-01-05T17:11:53.851Z,14.40
2023-01-05T17:14:21.638Z,14.30
2023-01-05T17:16:48.342Z,14.30
2023-01-05T17:19:17.468Z,14.30
2023-01-05T17:21:48.025Z,14.30
2023-01-05T17:24:14.783Z,14.20
2023-01-05T17:26:43.752Z,14.20
2023-01-05T17:29:23.100Z,14.10
2023-01-05T17:31:50.171Z,13.90
2023-01-05T17:34:17.445Z,13.90
2023-01-05T17:36:45.008Z,13.80
2023-01-05T17:39:19.468Z,13.60
2023-01-05T17:41:46.433Z,13.40
2023-01-05T17:44:13.587Z,13.30
2023-01-05T17:46:44.916Z,13.20
2023-01-05T17:49:20.053Z,13.00
2023-01-05T17:51:47.154Z,12.90
2023-01-05T17:54:14.146Z,12.80
2023-01-05T17:56:40.890Z,13.00
2023-01-05T17:59:07.893Z,13.20
2023-01-05T18:01:34.776Z,13.40
2023-01-05T18:04:01.813Z,13.40
2023-01-05T18:06:28.666Z,13.50
2023-01-05T18:08:55.528Z,13.40
2023-01-05T18:11:22.367Z,13.50
2023-01-05T18:13:49.343Z,13.50
2023-01-05T18:16:16.269Z,13.40
2023-01-05T18:18:43.042Z,13.20
2023-01-05T18:21:09.808Z,13.00
2023-01-05T18:23:36.472Z,12.90
2023-01-05T18:26:08.030Z,12.90
2023-01-05T18:28:35.004Z,12.90
2023-01-05T18:31:02.038Z,12.60
2023-01-05T18:33:28.818Z,12.40
2023-01-05T18:38:27.206Z,12.50
2023-01-05T18:40:53.994Z,12.40
2023-01-05T18:43:20.921Z,12.30
2023-01-05T18:45:54.965Z,12.30
2023-01-05T18:48:22.280Z,12.40
2023-01-05T18:50:52.484Z,12.30
2023-01-05T18:53:21.402Z,12.20
2023-01-05T18:55:48.849Z,12.30
2023-01-05T18:58:15.800Z,12.20
2023-01-05T19:00:44.266Z,12.00
2023-01-05T19:03:11.369Z,11.90
2023-01-05T19:05:40.702Z,11.90
2023-01-05T19:08:09.527Z,11.60
2023-01-05T19:10:36.728Z,11.40
2023-01-05T19:13:03.763Z,11.30
2023-01-05T19:15:33.725Z,11.20
2023-01-05T19:18:00.683Z,11.10
2023-01-05T19:20:27.396Z,11.10
2023-01-05T19:22:54.152Z,11.10
2023-01-05T19:25:21.117Z,11.00
2023-01-05T19:27:47.919Z,10.90
2023-01-05T19:30:17.557Z,10.80
2023-01-05T19:32:44.684Z,10.70
2023-01-05T19:35:11.500Z,10.70
2023-01-05T19:37:39.087Z,10.70
2023-01-05T19:40:06.459Z,10.60
2023-01-05T19:42:33.195Z,10.50
2023-01-05T19:45:00.017Z,10.40
2023-01-05T19:47:27.300Z,10.40
2023-01-05T19:49:53.974Z,10.30
2023-01-05T19:52:20.788Z,10.30
2023-01-05T19:54:47.730Z,10.20
2023-01-05T19:57:14.490Z,10.10
2023-01-05T19:59:41.266Z,9.80
2023-01-05T20:02:08.052Z,9.50
2023-01-05T20:04:34.824Z,9.30
2023-01-05T20:07:03.945Z,9.10
2023-01-05T20:09:31.324Z,9.00
2023-01-05T20:12:09.117Z,8.90
2023-01-05T20:14:39.733Z,8.90
2023-01-05T20:17:08.585Z,8.90
2023-01-05T20:19:36.899Z,8.90
2023-01-05T20:22:05.872Z,8.90
2023-01-05T20:24:34.308Z,8.80
2023-01-05T20:27:03.916Z,8.80
2023-01-05T20:29:31.512Z,8.80
2023-01-05T20:32:05.347Z,8.80
2023-01-05T20:34:36.262Z,8.70
2023-01-05T20:37:07.173Z,8.70
2023-01-05T20:39:35.593Z,8.60
2023-01-05T20:42:04.939Z,8.60
2023-01-05T20:44:35.805Z,8.60
2023-01-05T20:47:03.255Z,8.60
2023-01-05T20:49:31.136Z,8.60
2023-01-05T20:51:58.593Z,8.70
2023-01-05T20:54:25.798Z,8.80
2023-01-05T20:56:52.737Z,8.80
2023-01-05T20:59:23.005Z,8.80
2023-01-05T21:01:51.232Z,8.80
2023-01-05T21:04:19.096Z,8.80
2023-01-05T21:06:47.196Z,8.80
2023-01-05T21:09:14.904Z,8.80
2023-01-05T21:11:42.438Z,8.80
2023-01-05T21:14:11.401Z,8.90
2023-01-05T21:16:44.560Z,8.90
2023-01-05T21:19:18.435Z,8.90
2023-01-05T21:21:46.704Z,9.00
2023-01-05T21:24:14.289Z,9.00
2023-01-05T21:26:41.744Z,9.10
2023-01-05T21:29:10.867Z,9.10
2023-01-05T21:31:38.008Z,9.20
2023-01-05T21:34:04.765Z,9.20
2023-01-05T21:36:38.331Z,9.20
2023-01-05T21:39:08.254Z,9.20
2023-01-05T21:41:55.360Z,9.20
2023-01-05T21:44:23.140Z,9.20
2023-01-05T21:46:50.934Z,9.30
2023-01-05T21:49:18.681Z,9.30
2023-01-05T21:52:04.414Z,9.30
2023-01-05T21:54:49.930Z,9.30
2023-01-05T21:57:17.063Z,9.20
2023-01-05T21:59:44.395Z,9.30
2023-01-05T22:02:12.907Z,9.30
2023-01-05T22:04:39.591Z,9.20
2023-01-05T22:07:07.387Z,9.20
2023-01-05T22:09:37.823Z,9.40
2023-01-05T22:12:09.149Z,9.40
2023-01-05T22:14:39.216Z,9.40
2023-01-05T22:17:08.069Z,9.40
2023-01-05T22:19:35.339Z,9.40
2023-01-05T22:22:02.175Z,9.60
2023-01-05T22:24:28.948Z,9.60
2023-01-05T22:26:55.708Z,9.50
2023-01-05T22:29:22.850Z,9.70
2023-01-05T22:31:50.739Z,9.70
2023-01-05T22:34:18.065Z,9.80
2023-01-05T22:36:45.415Z,9.70
2023-01-05T22:39:12.320Z,9.70
2023-01-05T22:41:39.077Z,9.60
2023-01-05T22:44:06.127Z,9.70
2023-01-05T22:46:33.515Z,9.70
2023-01-05T22:49:00.427Z,9.80
2023-01-05T22:51:36.929Z,9.90
2023-01-05T22:54:05.053Z,9.90
2023-01-05T22:56:33.464Z,9.90
2023-01-05T22:59:01.429Z,9.90
2023-01-05T23:01:32.854Z,10.00
2023-01-05T23:04:01.519Z,10.00
2023-01-05T23:06:29.454Z,10.00
2023-01-05T23:08:57.143Z,9.90
2023-01-05T23:11:26.620Z,10.00
2023-01-05T23:13:54.704Z,10.00
2023-01-05T23:16:22.022Z,10.00
2023-01-05T23:18:50.086Z,10.00
2023-01-05T23:21:18.823Z,9.90
2023-01-05T23:23:46.237Z,9.90
2023-01-05T23:26:14.913Z,10.00
2023-01-05T23:28:42.845Z,10.00
2023-01-05T23:31:11.494Z,10.10
2023-01-05T23:33:38.358Z,10.20
2023-01-05T23:36:05.643Z,10.20
2023-01-05T23:38:33.298Z,10.20
2023-01-05T23:41:03.030Z,10.20
2023-01-05T23:43:29.885Z,10.00
2023-01-05T23:46:04.082Z,10.10
2023-01-05T23:48:31.515Z,10.10
2023-01-05T23:50:58.764Z,10.00
2023-01-05T23:53:25.961Z,10.00
2023-01-05T23:55:53.663Z,10.00
2023-01-05T23:58:20.376Z,10.00
